TimeCST,TemperatureF,Dew PointF,Humidity,Sea Level PressureIn,VisibilityMPH,Wind Direction,Wind SpeedMPH,Gust SpeedMPH,PrecipitationIn,Events,Conditions,WindDirDegrees,DateUTC
12:15 AM,43.3,31.8,64,30.14,10.0,SE,13.8,-,N/A,,Clear,130,2013-03-09 06:15:00
12:35 AM,43.7,31.5,62,30.13,10.0,SE,13.8,-,N/A,,Clear,130,2013-03-09 06:35:00
12:55 AM,43.3,31.1,62,30.12,10.0,SE,15.0,-,N/A,,Scattered Clouds,130,2013-03-09 06:55:00
1:15 AM,43.2,31.1,62,30.11,10.0,SE,13.8,-,N/A,,Mostly Cloudy,130,2013-03-09 07:15:00
1:35 AM,43.3,31.1,62,30.11,10.0,SE,15.0,19.6,N/A,,Overcast,140,2013-03-09 07:35:00
1:55 AM,43.3,31.1,62,30.11,10.0,SSE,13.8,-,N/A,,Overcast,150,2013-03-09 07:55:00
2:15 AM,42.8,31.1,63,30.10,10.0,SSE,11.5,-,N/A,,Light Drizzle,150,2013-03-09 08:15:00
2:35 AM,42.3,32.0,67,30.10,7.0,SSE,11.5,-,N/A,Rain,Light Rain,150,2013-03-09 08:35:00
2:55 AM,42.1,32.2,68,30.11,7.0,SSE,12.7,17.3,N/A,Rain,Light Rain,160,2013-03-09 08:55:00
3:15 AM,41.9,32.7,70,30.10,5.0,SSE,16.1,-,N/A,Rain,Rain,150,2013-03-09 09:15:00
3:35 AM,41.2,33.4,74,30.10,5.0,SSE,15.0,-,0.02,Rain,Light Rain,150,2013-03-09 09:35:00
3:55 AM,41.0,33.8,76,30.09,5.0,SSE,16.1,-,0.02,Rain,Light Rain,150,2013-03-09 09:55:00
4:15 AM,41.2,34.2,76,30.07,4.0,SE,16.1,-,N/A,Rain,Rain,140,2013-03-09 10:15:00
4:35 AM,41.4,34.3,76,30.07,7.0,SSE,13.8,-,N/A,Rain,Light Rain,150,2013-03-09 10:35:00
4:55 AM,41.4,34.5,77,30.06,7.0,SE,15.0,-,N/A,Rain,Light Rain,140,2013-03-09 10:55:00
5:15 AM,41.5,34.3,76,30.08,5.0,SSE,12.7,-,0.01,Rain,Rain,150,2013-03-09 11:15:00
5:35 AM,41.2,34.7,78,30.07,2.0,SE,12.7,-,0.05,,Overcast,140,2013-03-09 11:35:00
5:55 AM,41.0,34.9,79,30.07,2.0,SE,11.5,-,0.11,Rain,Rain,140,2013-03-09 11:55:00
6:15 AM,41.2,35.2,79,30.05,2.0,SE,16.1,-,0.03,Rain,Light Rain,140,2013-03-09 12:15:00
6:35 AM,41.0,35.1,79,30.06,3.0,SSE,17.3,24.2,0.04,Rain,Light Rain,150,2013-03-09 12:35:00
6:55 AM,41.2,35.2,79,30.04,4.0,SSE,18.4,25.3,0.04,Rain,Light Rain,150,2013-03-09 12:55:00
7:15 AM,41.0,35.4,81,30.04,4.0,SSE,16.1,23.0,N/A,Rain,Rain,150,2013-03-09 13:15:00
7:35 AM,41.5,35.8,80,30.03,4.0,SE,19.6,26.5,N/A,Rain,Light Rain,140,2013-03-09 13:35:00
7:55 AM,41.9,35.8,79,30.03,4.0,SE,18.4,27.6,N/A,Rain,Light Rain,140,2013-03-09 13:55:00
8:15 AM,41.9,35.6,78,30.01,5.0,SE,18.4,-,N/A,,Haze,140,2013-03-09 14:15:00
8:35 AM,41.9,35.6,78,30.02,5.0,SE,20.7,27.6,N/A,,Haze,140,2013-03-09 14:35:00
8:55 AM,42.1,35.6,78,30.00,5.0,SE,20.7,28.8,N/A,,Overcast,140,2013-03-09 14:55:00
9:15 AM,41.9,35.6,78,29.99,5.0,SE,19.6,25.3,N/A,,Haze,140,2013-03-09 15:15:00
9:35 AM,41.9,35.6,78,29.99,5.0,SSE,18.4,23.0,N/A,Rain,Light Rain,150,2013-03-09 15:35:00
9:55 AM,41.9,35.6,78,29.98,4.0,SSE,18.4,26.5,N/A,Rain,Light Rain,150,2013-03-09 15:55:00
10:15 AM,41.9,36.1,80,29.97,4.0,SSE,18.4,25.3,N/A,Rain,Light Rain,150,2013-03-09 16:15:00
10:35 AM,42.1,36.1,79,29.97,4.0,SSE,20.7,26.5,N/A,,Haze,150,2013-03-09 16:35:00
10:55 AM,42.1,36.1,79,29.95,3.0,SE,16.1,-,N/A,,Drizzle,140,2013-03-09 16:55:00
11:15 AM,42.8,36.9,80,29.94,2.0,SSE,17.3,21.9,0.01,Rain,Rain,150,2013-03-09 17:15:00
11:35 AM,42.8,36.9,80,29.92,4.0,SE,18.4,21.9,0.01,Rain,Light Rain,140,2013-03-09 17:35:00
11:55 AM,42.8,36.5,78,29.92,5.0,SSE,18.4,24.2,0.01,,Haze,150,2013-03-09 17:55:00
12:15 PM,42.8,36.5,78,29.90,5.0,SSE,19.6,23.0,N/A,,Haze,150,2013-03-09 18:15:00
12:35 PM,43.0,36.5,78,29.89,5.0,SSE,15.0,23.0,N/A,,Haze,150,2013-03-09 18:35:00
12:55 PM,42.8,36.5,78,29.87,5.0,SE,16.1,-,N/A,,Haze,140,2013-03-09 18:55:00
1:15 PM,43.0,36.5,78,29.85,5.0,SSE,16.1,23.0,N/A,,Haze,150,2013-03-09 19:15:00
1:35 PM,43.7,36.9,77,29.84,5.0,SSE,12.7,-,N/A,,Haze,150,2013-03-09 19:35:00
1:55 PM,44.6,37.4,76,29.83,7.0,SSE,13.8,-,N/A,,Overcast,150,2013-03-09 19:55:00
2:15 PM,44.8,37.6,76,29.81,7.0,SSE,12.7,-,N/A,,Overcast,150,2013-03-09 20:15:00
2:35 PM,46.2,37.8,72,29.81,7.0,South,11.5,17.3,N/A,,Overcast,170,2013-03-09 20:35:00
2:55 PM,46.4,37.4,71,29.80,10.0,SSE,16.1,20.7,N/A,,Overcast,150,2013-03-09 20:55:00
3:15 PM,46.0,37.0,71,29.80,10.0,SSE,11.5,-,N/A,,Overcast,160,2013-03-09 21:15:00
3:35 PM,46.2,37.0,70,29.80,10.0,SSE,8.1,-,N/A,,Overcast,160,2013-03-09 21:35:00
3:55 PM,45.9,36.9,71,29.80,10.0,SSE,11.5,16.1,N/A,,Overcast,150,2013-03-09 21:55:00
4:15 PM,45.5,36.9,72,29.78,7.0,SE,12.7,-,N/A,,Overcast,140,2013-03-09 22:15:00
4:35 PM,45.5,37.0,72,29.78,7.0,SE,10.4,-,N/A,Rain,Light Rain,140,2013-03-09 22:35:00
4:55 PM,45.7,37.4,73,29.79,7.0,SSE,6.9,-,N/A,Rain,Rain,160,2013-03-09 22:55:00
5:15 PM,45.5,37.8,74,29.79,7.0,SE,4.6,-,N/A,Rain,Light Rain,140,2013-03-09 23:15:00
5:35 PM,45.3,37.9,75,29.80,7.0,SE,8.1,-,N/A,Rain,Rain,140,2013-03-09 23:35:00
5:55 PM,45.1,38.3,77,29.79,7.0,ESE,8.1,-,N/A,Rain,Light Rain,120,2013-03-09 23:55:00
6:15 PM,45.0,38.7,79,29.79,7.0,ESE,3.5,-,N/A,Rain,Rain,120,2013-03-10 00:15:00
6:35 PM,44.1,38.1,80,29.78,4.0,ESE,3.5,-,0.03,Rain,Rain,110,2013-03-10 00:35:00
6:55 PM,43.7,37.9,80,29.77,4.0,East,8.1,-,0.05,Rain,Light Rain,100,2013-03-10 00:55:00
7:15 PM,43.5,37.9,81,29.77,5.0,East,3.5,-,N/A,,Light Drizzle,80,2013-03-10 01:15:00
7:35 PM,47.5,39.9,75,29.77,10.0,East,4.6,-,0.01,,Overcast,100,2013-03-10 01:35:00
7:55 PM,45.7,38.5,76,29.77,7.0,SE,3.5,-,0.01,,Overcast,130,2013-03-10 01:55:00
8:15 PM,47.1,39.4,74,29.77,7.0,ESE,3.5,-,N/A,,Overcast,120,2013-03-10 02:15:00
8:35 PM,47.1,40.1,77,29.78,7.0,ESE,5.8,-,N/A,Rain,Light Rain,120,2013-03-10 02:35:00
8:55 PM,46.0,39.2,77,29.77,7.0,East,9.2,-,N/A,Rain,Light Rain,100,2013-03-10 02:55:00
9:15 PM,45.9,39.2,78,29.77,7.0,East,10.4,-,N/A,,Overcast,100,2013-03-10 03:15:00
9:35 PM,45.5,38.7,77,29.78,5.0,SE,6.9,-,N/A,Rain,Rain,130,2013-03-10 03:35:00
9:55 PM,45.3,39.4,80,29.75,5.0,ESE,9.2,-,0.01,Rain,Rain,110,2013-03-10 03:55:00
10:15 PM,46.8,40.1,78,29.75,7.0,ESE,5.8,-,N/A,Rain,Light Rain,120,2013-03-10 04:15:00
10:35 PM,47.1,40.5,78,29.77,5.0,SE,12.7,-,0.02,Rain,Rain,140,2013-03-10 04:35:00
10:55 PM,47.5,41.0,78,29.76,4.0,SSE,9.2,-,0.09,Rain,Rain,150,2013-03-10 04:55:00
11:15 PM,48.6,42.6,80,29.76,5.0,SSE,10.4,-,0.07,Rain,Rain,160,2013-03-10 05:15:00
11:35 PM,48.7,42.8,80,29.75,4.0,SSE,12.7,-,0.17,Rain,Heavy Rain,150,2013-03-10 05:35:00
11:55 PM,49.1,43.5,81,29.75,4.0,SSE,12.7,-,0.23,Rain,Heavy Rain,160,2013-03-10 05:55:00